createdAt,value
2017-11-08T00:00:35.445Z,0.00
2017-11-08T00:01:35.439Z,0.00
2017-11-08T00:02:35.432Z,0.00
2017-11-08T00:03:35.431Z,0.00
2017-11-08T00:04:35.446Z,0.00
2017-11-08T00:05:35.423Z,0.00
2017-11-08T00:06:35.416Z,0.00
2017-11-08T00:07:35.411Z,0.00
2017-11-08T00:08:35.407Z,0.00
2017-11-08T00:09:35.400Z,0.00
2017-11-08T00:10:35.397Z,0.00
2017-11-08T00:11:35.391Z,0.00
2017-11-08T00:12:35.386Z,0.00
2017-11-08T00:13:35.385Z,0.00
2017-11-08T00:14:35.381Z,0.00
2017-11-08T00:15:35.371Z,0.00
2017-11-08T00:16:35.402Z,0.00
2017-11-08T00:17:35.361Z,0.00
2017-11-08T00:18:35.356Z,0.00
2017-11-08T00:19:35.351Z,0.00
2017-11-08T00:20:35.396Z,0.00
2017-11-08T00:21:35.339Z,0.00
2017-11-08T00:22:35.342Z,0.00
2017-11-08T00:23:36.226Z,0.00
2017-11-08T00:24:35.324Z,0.00
2017-11-08T00:25:35.322Z,0.00
2017-11-08T00:26:35.314Z,0.00
2017-11-08T00:27:35.313Z,0.00
2017-11-08T00:28:35.306Z,0.00
2017-11-08T00:29:35.303Z,0.00
2017-11-08T00:30:35.298Z,0.00
2017-11-08T00:31:35.288Z,0.00
2017-11-08T00:32:35.280Z,0.00
2017-11-08T00:33:35.279Z,0.00
2017-11-08T00:34:35.274Z,0.00
2017-11-08T00:35:35.270Z,0.00
2017-11-08T00:36:35.263Z,0.00
2017-11-08T00:37:35.268Z,0.00
2017-11-08T00:38:35.254Z,0.00
2017-11-08T00:39:35.253Z,0.00
2017-11-08T00:40:35.245Z,0.00
2017-11-08T00:41:35.244Z,0.00
2017-11-08T00:42:35.234Z,0.00
2017-11-08T00:43:35.231Z,0.00
2017-11-08T00:44:35.225Z,0.00
2017-11-08T00:45:35.222Z,0.00
2017-11-08T00:46:35.216Z,0.00
2017-11-08T00:47:35.211Z,0.00
2017-11-08T00:48:35.204Z,0.00
2017-11-08T00:49:35.206Z,0.00
2017-11-08T00:50:35.196Z,0.00
2017-11-08T00:51:35.195Z,0.00
2017-11-08T00:52:35.190Z,0.00
2017-11-08T00:53:35.182Z,0.00
2017-11-08T00:54:35.178Z,0.00
2017-11-08T00:55:35.171Z,0.00
2017-11-08T00:56:35.165Z,0.00
2017-11-08T00:57:35.161Z,0.00
2017-11-08T00:58:35.159Z,0.00
2017-11-08T00:59:35.152Z,0.00
2017-11-08T01:00:35.143Z,0.00
2017-11-08T01:01:35.140Z,0.00
2017-11-08T01:02:35.138Z,0.00
2017-11-08T01:03:42.759Z,0.00
2017-11-08T01:05:28.523Z,0.00
2017-11-08T01:06:28.487Z,0.00
2017-11-08T01:08:22.874Z,0.00
2017-11-08T01:09:22.870Z,0.00
2017-11-08T01:11:16.249Z,0.00
2017-11-08T01:12:16.210Z,0.00
2017-11-08T01:14:09.595Z,0.00
2017-11-08T01:15:09.569Z,0.00
2017-11-08T01:17:02.957Z,0.00
2017-11-08T01:18:02.919Z,0.00
2017-11-08T01:19:56.303Z,0.00
2017-11-08T01:20:56.276Z,0.00
2017-11-08T01:22:50.660Z,0.00
2017-11-08T01:23:50.633Z,0.00
2017-11-08T01:25:44.026Z,0.00
2017-11-08T01:26:43.993Z,0.00
2017-11-08T01:27:43.993Z,0.00
2017-11-08T01:28:43.987Z,0.00
2017-11-08T01:29:43.989Z,0.00
2017-11-08T01:30:43.976Z,0.00
2017-11-08T01:31:43.981Z,0.00
2017-11-08T01:32:43.969Z,0.00
2017-11-08T01:33:43.967Z,0.00
2017-11-08T01:34:43.966Z,0.00
2017-11-08T01:35:43.958Z,0.00
2017-11-08T01:36:43.949Z,0.00
2017-11-08T01:37:43.949Z,0.00
2017-11-08T01:38:43.942Z,0.00
2017-11-08T01:39:43.939Z,0.00
2017-11-08T01:40:43.943Z,0.00
2017-11-08T01:41:43.932Z,0.00
2017-11-08T01:42:43.926Z,0.00
2017-11-08T01:43:43.923Z,0.00
2017-11-08T01:44:43.953Z,0.00
2017-11-08T01:45:43.915Z,0.00
2017-11-08T01:46:43.903Z,0.00
2017-11-08T01:47:43.910Z,0.00
2017-11-08T01:48:43.897Z,0.00
2017-11-08T01:49:43.895Z,0.00
2017-11-08T01:50:43.893Z,0.00
2017-11-08T01:51:43.882Z,0.00
2017-11-08T01:52:43.880Z,0.00
2017-11-08T01:53:43.878Z,0.00
2017-11-08T01:54:43.872Z,0.00
2017-11-08T01:55:43.871Z,0.00
2017-11-08T01:56:43.867Z,0.00
2017-11-08T01:57:43.860Z,0.00
2017-11-08T01:58:43.863Z,0.00
2017-11-08T01:59:43.849Z,0.00
2017-11-08T02:00:43.848Z,0.00
2017-11-08T02:01:43.842Z,0.00
2017-11-08T02:02:43.836Z,0.00
2017-11-08T02:03:43.829Z,0.00
2017-11-08T02:04:43.828Z,0.00
2017-11-08T02:05:43.837Z,0.00
2017-11-08T02:06:43.821Z,0.00
2017-11-08T02:07:43.814Z,0.00
2017-11-08T02:08:43.812Z,0.00
2017-11-08T02:09:43.811Z,0.00
2017-11-08T02:10:43.803Z,0.00
2017-11-08T02:11:43.799Z,0.00
2017-11-08T02:12:43.794Z,0.00
2017-11-08T02:13:43.792Z,0.00
2017-11-08T02:14:43.784Z,0.00
2017-11-08T02:15:43.779Z,0.00
2017-11-08T02:16:43.777Z,0.00
2017-11-08T02:17:43.774Z,0.00
2017-11-08T02:18:43.772Z,0.00
2017-11-08T02:19:43.767Z,0.00
2017-11-08T02:20:43.762Z,0.00
2017-11-08T02:21:43.756Z,0.00
2017-11-08T02:22:43.752Z,0.00
2017-11-08T02:23:43.744Z,0.00
2017-11-08T02:24:43.744Z,0.00
2017-11-08T02:25:43.737Z,0.00
2017-11-08T02:26:43.736Z,0.00
2017-11-08T02:27:43.734Z,0.00
2017-11-08T02:28:43.735Z,0.00
2017-11-08T02:29:43.721Z,0.00
2017-11-08T02:30:43.715Z,0.00
2017-11-08T02:31:51.340Z,0.00
2017-11-08T02:33:37.092Z,0.00
2017-11-08T02:34:37.069Z,0.00
2017-11-08T02:36:30.452Z,0.00
2017-11-08T02:37:30.428Z,0.00
2017-11-08T02:39:24.823Z,0.00
2017-11-08T02:40:24.797Z,0.00
2017-11-08T02:42:18.176Z,0.00
2017-11-08T02:43:18.151Z,0.00
2017-11-08T02:44:18.152Z,0.00
2017-11-08T02:45:18.150Z,0.00
2017-11-08T02:46:18.143Z,0.00
2017-11-08T02:47:18.139Z,0.00
2017-11-08T02:48:18.134Z,0.00
2017-11-08T02:49:18.136Z,0.00
2017-11-08T02:50:18.127Z,0.00
2017-11-08T02:51:18.125Z,0.00
2017-11-08T02:52:18.121Z,0.00
2017-11-08T02:53:18.117Z,0.00
2017-11-08T02:54:18.112Z,0.00
2017-11-08T02:55:18.109Z,0.00
2017-11-08T02:56:18.107Z,0.00
2017-11-08T02:57:18.103Z,0.00
2017-11-08T02:58:18.109Z,0.00
2017-11-08T02:59:18.086Z,0.00
2017-11-08T03:00:18.107Z,0.00
2017-11-08T03:01:18.090Z,0.00
2017-11-08T03:02:18.080Z,0.00
2017-11-08T03:03:18.072Z,0.00
2017-11-08T03:04:18.075Z,0.00
2017-11-08T03:05:18.071Z,0.00
2017-11-08T03:06:18.066Z,0.00
2017-11-08T03:07:18.064Z,0.00
2017-11-08T03:08:18.055Z,0.00
2017-11-08T03:09:18.057Z,0.00
2017-11-08T03:10:18.046Z,0.00
2017-11-08T03:11:18.046Z,0.00
2017-11-08T03:12:18.041Z,0.00
2017-11-08T03:13:18.040Z,0.00
2017-11-08T03:14:18.034Z,0.00
2017-11-08T03:15:18.030Z,0.00
2017-11-08T03:16:18.026Z,0.00
2017-11-08T03:17:18.022Z,0.00
2017-11-08T03:18:18.018Z,0.00
2017-11-08T03:19:18.013Z,0.00
2017-11-08T03:20:18.007Z,0.00
2017-11-08T03:21:18.007Z,0.00
2017-11-08T03:22:18.010Z,0.00
2017-11-08T03:23:17.998Z,0.00
2017-11-08T03:24:17.994Z,0.00
2017-11-08T03:25:17.992Z,0.00
2017-11-08T03:26:17.988Z,0.00
2017-11-08T03:27:17.983Z,0.00
2017-11-08T03:28:17.978Z,0.00
2017-11-08T03:29:17.972Z,0.00
2017-11-08T03:30:17.970Z,0.00
2017-11-08T03:31:17.969Z,0.00
2017-11-08T03:32:17.968Z,0.00
2017-11-08T03:33:17.959Z,0.00
2017-11-08T03:34:17.959Z,0.00
2017-11-08T03:35:17.958Z,0.00
2017-11-08T03:36:17.948Z,0.00
2017-11-08T03:37:17.942Z,0.00
2017-11-08T03:38:17.938Z,0.00
2017-11-08T03:39:17.932Z,0.00
2017-11-08T03:40:17.936Z,0.00
2017-11-08T03:41:17.932Z,0.00
2017-11-08T03:42:17.923Z,0.00
2017-11-08T03:43:17.930Z,0.00
2017-11-08T03:44:17.914Z,0.00
2017-11-08T03:45:17.907Z,0.00
2017-11-08T03:46:17.907Z,0.00
2017-11-08T03:47:17.899Z,0.00
2017-11-08T03:48:17.898Z,0.00
2017-11-08T03:49:17.892Z,0.00
2017-11-08T03:50:17.891Z,0.00
2017-11-08T03:51:17.886Z,0.00
2017-11-08T03:52:17.885Z,0.00
2017-11-08T03:53:17.881Z,0.00
2017-11-08T03:54:17.873Z,0.00
2017-11-08T03:55:17.870Z,0.00
2017-11-08T03:56:17.866Z,0.00
2017-11-08T03:57:17.859Z,0.00
2017-11-08T03:58:17.856Z,0.00
2017-11-08T03:59:17.857Z,0.00
2017-11-08T04:00:17.851Z,0.00
2017-11-08T04:01:17.845Z,0.00
2017-11-08T04:02:17.841Z,0.00
2017-11-08T04:03:17.834Z,0.00
2017-11-08T04:04:17.831Z,0.00
2017-11-08T04:05:17.830Z,0.00
2017-11-08T04:06:17.836Z,0.00
2017-11-08T04:07:17.820Z,0.00
2017-11-08T04:08:17.818Z,0.00
2017-11-08T04:09:17.813Z,0.00
2017-11-08T04:10:17.808Z,0.00
2017-11-08T04:11:17.808Z,0.00
2017-11-08T04:12:17.799Z,0.00
2017-11-08T04:13:17.813Z,0.00
2017-11-08T04:14:17.790Z,0.00
2017-11-08T04:15:17.790Z,0.00
2017-11-08T04:16:17.784Z,0.00
2017-11-08T04:17:17.777Z,0.00
2017-11-08T04:18:17.809Z,0.00
2017-11-08T04:19:17.773Z,0.00
2017-11-08T04:20:17.768Z,0.00
2017-11-08T04:21:17.764Z,0.00
2017-11-08T04:22:17.760Z,0.00
2017-11-08T04:23:17.754Z,0.00
2017-11-08T04:24:17.754Z,0.00
2017-11-08T04:25:17.750Z,0.00
2017-11-08T04:26:17.757Z,0.00
2017-11-08T04:27:17.741Z,0.00
2017-11-08T04:28:17.732Z,0.00
2017-11-08T04:29:17.729Z,0.00
2017-11-08T04:30:17.730Z,0.00
2017-11-08T04:31:17.735Z,0.00
2017-11-08T04:32:17.722Z,0.00
2017-11-08T04:33:17.726Z,0.00
2017-11-08T04:34:17.713Z,0.00
2017-11-08T04:35:17.708Z,0.00
2017-11-08T04:36:17.711Z,0.00
2017-11-08T04:37:17.703Z,0.00
2017-11-08T04:38:17.697Z,0.00
2017-11-08T04:39:17.699Z,0.00
2017-11-08T04:40:17.689Z,0.00
2017-11-08T04:41:17.686Z,0.00
2017-11-08T04:42:17.681Z,0.00
2017-11-08T04:43:17.686Z,0.00
2017-11-08T04:44:25.300Z,0.00
2017-11-08T04:46:11.061Z,0.00
2017-11-08T04:47:11.037Z,0.00
2017-11-08T04:49:04.416Z,0.00
2017-11-08T04:50:04.390Z,0.00
2017-11-08T04:51:58.643Z,0.00
2017-11-08T04:52:58.599Z,0.00
2017-11-08T04:54:51.991Z,0.00
2017-11-08T04:55:51.969Z,0.00
2017-11-08T04:57:45.370Z,0.00
2017-11-08T04:58:45.348Z,0.00
2017-11-08T05:00:39.733Z,0.00
2017-11-08T05:01:39.718Z,0.00
2017-11-08T05:03:34.112Z,0.00
2017-11-08T05:04:41.717Z,0.00
2017-11-08T05:06:27.469Z,0.00
2017-11-08T05:07:27.446Z,0.00
2017-11-08T05:09:20.835Z,0.00
2017-11-08T05:10:20.814Z,0.00
2017-11-08T05:12:23.292Z,0.00
2017-11-08T05:13:14.163Z,0.00
2017-11-08T05:15:07.548Z,0.00
2017-11-08T05:16:07.528Z,0.00
2017-11-08T05:18:00.904Z,0.00
2017-11-08T05:19:00.884Z,0.00
2017-11-08T05:20:54.267Z,0.00
2017-11-08T05:21:54.249Z,0.00
2017-11-08T05:23:47.626Z,0.00
2017-11-08T05:24:47.602Z,0.00
2017-11-08T05:26:41.998Z,0.00
2017-11-08T05:27:49.588Z,0.00
2017-11-08T05:29:35.345Z,0.00
2017-11-08T05:30:35.320Z,0.00
2017-11-08T05:32:28.770Z,0.00
2017-11-08T05:33:28.794Z,0.00
2017-11-08T05:35:23.142Z,0.00
2017-11-08T05:36:23.122Z,0.00
2017-11-08T05:37:23.115Z,0.00
2017-11-08T05:38:23.112Z,0.00
2017-11-08T05:39:23.126Z,0.00
2017-11-08T05:40:23.104Z,0.00
2017-11-08T05:41:23.131Z,0.00
2017-11-08T05:42:23.105Z,0.00
2017-11-08T05:43:23.679Z,0.00
2017-11-08T05:44:23.116Z,0.00
2017-11-08T05:45:23.128Z,0.00
2017-11-08T05:46:23.136Z,0.00
2017-11-08T05:47:23.743Z,0.00
2017-11-08T05:48:23.572Z,0.00
2017-11-08T05:49:23.127Z,0.00
2017-11-08T05:50:23.126Z,0.00
2017-11-08T05:51:23.184Z,0.00
2017-11-08T05:52:23.109Z,0.00
2017-11-08T05:53:23.050Z,0.00
2017-11-08T05:54:23.050Z,0.00
2017-11-08T05:55:23.664Z,0.00
2017-11-08T05:56:23.040Z,0.00
2017-11-08T05:57:25.685Z,0.00
2017-11-08T05:58:23.702Z,0.00
2017-11-08T05:59:23.669Z,0.00
2017-11-08T06:00:23.041Z,0.00
2017-11-08T06:01:23.048Z,0.00
2017-11-08T06:02:23.026Z,0.00
2017-11-08T06:03:23.160Z,0.00
2017-11-08T06:04:23.108Z,0.00
2017-11-08T06:05:23.110Z,0.00
2017-11-08T06:06:23.107Z,0.00
2017-11-08T06:07:23.123Z,0.00
2017-11-08T06:08:23.049Z,0.00
2017-11-08T06:09:23.129Z,0.00
2017-11-08T06:10:23.051Z,5.63
2017-11-08T06:11:23.040Z,5.63
2017-11-08T06:12:23.029Z,5.63
2017-11-08T06:13:23.003Z,5.63
2017-11-08T06:14:23.051Z,5.63
2017-11-08T06:15:22.990Z,5.63
2017-11-08T06:16:22.983Z,5.63
2017-11-08T06:17:23.049Z,5.63
2017-11-08T06:18:23.014Z,11.25
2017-11-08T06:19:23.069Z,11.25
2017-11-08T06:20:23.016Z,11.25
2017-11-08T06:21:22.998Z,16.88
2017-11-08T06:22:22.971Z,16.88
2017-11-08T06:23:23.056Z,16.88
2017-11-08T06:24:23.174Z,16.88
2017-11-08T06:25:23.180Z,22.50
2017-11-08T06:26:23.133Z,22.50
2017-11-08T06:27:22.926Z,22.50
2017-11-08T06:28:23.683Z,22.50
2017-11-08T06:29:22.985Z,22.50
2017-11-08T06:30:22.978Z,22.50
2017-11-08T06:31:22.954Z,22.50
2017-11-08T06:32:22.996Z,22.50
2017-11-08T06:33:22.922Z,22.50
2017-11-08T06:34:23.008Z,22.50
2017-11-08T06:35:22.901Z,22.50
2017-11-08T06:36:22.886Z,22.50
2017-11-08T06:37:22.890Z,22.50
2017-11-08T06:38:23.680Z,28.13
2017-11-08T06:39:22.944Z,28.13
2017-11-08T06:40:22.925Z,33.75
2017-11-08T06:41:22.932Z,39.38
2017-11-08T06:42:22.911Z,39.38
2017-11-08T06:43:22.865Z,39.38
2017-11-08T06:44:22.868Z,39.38
2017-11-08T06:45:22.862Z,45.00
2017-11-08T06:46:22.864Z,50.63
2017-11-08T06:47:22.912Z,50.63
2017-11-08T06:48:22.884Z,50.63
2017-11-08T06:49:23.673Z,56.25
2017-11-08T06:50:22.902Z,56.25
2017-11-08T06:51:22.832Z,67.50
2017-11-08T06:52:23.679Z,78.75
2017-11-08T06:53:22.824Z,73.13
2017-11-08T06:54:22.825Z,78.75
2017-11-08T06:55:23.714Z,84.38
2017-11-08T06:56:22.829Z,90.00
2017-11-08T06:57:22.821Z,95.63
2017-11-08T06:58:22.823Z,101.25
2017-11-08T06:59:22.810Z,101.25
2017-11-08T07:00:22.805Z,101.25
2017-11-08T07:01:22.804Z,95.63
2017-11-08T07:02:22.872Z,101.25
2017-11-08T07:03:22.802Z,95.63
2017-11-08T07:04:22.828Z,90.00
2017-11-08T07:05:22.784Z,90.00
2017-11-08T07:06:22.778Z,90.00
2017-11-08T07:07:22.801Z,101.25
2017-11-08T07:08:22.792Z,95.63
2017-11-08T07:09:23.753Z,90.00
2017-11-08T07:10:22.763Z,90.00
2017-11-08T07:11:22.779Z,78.75
2017-11-08T07:12:22.770Z,73.13
2017-11-08T07:13:22.784Z,73.13
2017-11-08T07:14:22.769Z,67.50
2017-11-08T07:15:22.778Z,67.50
2017-11-08T07:16:22.776Z,67.50
2017-11-08T07:17:22.766Z,67.50
2017-11-08T07:18:22.755Z,67.50
2017-11-08T07:19:23.695Z,73.13
2017-11-08T07:20:22.729Z,73.13
2017-11-08T07:21:22.914Z,73.13
2017-11-08T07:22:22.725Z,78.75
2017-11-08T07:23:22.808Z,84.38
2017-11-08T07:24:22.744Z,90.00
2017-11-08T07:25:22.807Z,90.00
2017-11-08T07:26:22.721Z,95.63
2017-11-08T07:27:22.790Z,90.00
2017-11-08T07:28:22.714Z,101.25
2017-11-08T07:29:23.703Z,112.50
2017-11-08T07:30:22.779Z,129.38
2017-11-08T07:31:22.745Z,157.50
2017-11-08T07:32:22.695Z,168.75
2017-11-08T07:33:22.694Z,168.75
2017-11-08T07:34:22.697Z,168.75
2017-11-08T07:35:22.740Z,174.38
2017-11-08T07:36:22.705Z,174.38
2017-11-08T07:37:22.717Z,180.00
2017-11-08T07:38:22.708Z,168.75
2017-11-08T07:39:22.698Z,174.38
2017-11-08T07:40:22.725Z,180.00
2017-11-08T07:41:22.746Z,191.25
2017-11-08T07:42:22.717Z,180.00
2017-11-08T07:43:22.732Z,174.38
2017-11-08T07:44:22.721Z,174.38
2017-11-08T07:45:22.725Z,174.38
2017-11-08T07:46:22.714Z,168.75
2017-11-08T07:47:22.709Z,180.00
2017-11-08T07:48:22.696Z,191.25
2017-11-08T07:49:22.728Z,191.25
2017-11-08T07:50:22.684Z,191.25
2017-11-08T07:51:22.679Z,185.63
2017-11-08T07:52:22.636Z,174.38
2017-11-08T07:53:22.639Z,163.13
2017-11-08T07:54:22.653Z,163.13
2017-11-08T07:55:22.645Z,168.75
2017-11-08T07:56:22.628Z,180.00
2017-11-08T07:57:22.634Z,191.25
2017-11-08T07:58:22.623Z,196.88
2017-11-08T07:59:22.619Z,191.25
2017-11-08T08:00:22.613Z,196.88
2017-11-08T08:01:22.639Z,196.88
2017-11-08T08:02:22.609Z,191.25
2017-11-08T08:03:22.611Z,202.50
2017-11-08T08:04:22.606Z,219.38
2017-11-08T08:05:22.606Z,225.00
2017-11-08T08:06:22.605Z,196.88
2017-11-08T08:07:22.613Z,208.13
2017-11-08T08:08:22.599Z,225.00
2017-11-08T08:09:22.592Z,213.75
2017-11-08T08:10:22.606Z,202.50
2017-11-08T08:11:22.625Z,208.13
2017-11-08T08:12:22.582Z,185.63
2017-11-08T08:13:23.195Z,185.63
2017-11-08T08:14:22.699Z,202.50
2017-11-08T08:15:22.635Z,202.50
2017-11-08T08:16:22.577Z,225.00
2017-11-08T08:17:22.607Z,236.25
2017-11-08T08:18:22.591Z,219.38
2017-11-08T08:19:22.579Z,213.75
2017-11-08T08:20:22.570Z,247.50
2017-11-08T08:21:22.565Z,258.75
2017-11-08T08:22:22.562Z,253.13
2017-11-08T08:23:22.556Z,270.00
2017-11-08T08:24:24.203Z,270.00
2017-11-08T08:25:23.239Z,258.75
2017-11-08T08:26:22.552Z,247.50
2017-11-08T08:27:23.201Z,225.00
2017-11-08T08:28:23.202Z,140.63
2017-11-08T08:29:22.549Z,174.38
2017-11-08T08:30:22.604Z,185.63
2017-11-08T08:31:22.620Z,140.63
2017-11-08T08:32:22.546Z,123.75
2017-11-08T08:33:22.627Z,106.88
2017-11-08T08:34:22.563Z,101.25
2017-11-08T08:35:22.593Z,90.00
2017-11-08T08:36:22.733Z,90.00
2017-11-08T08:37:22.615Z,90.00
2017-11-08T08:38:22.574Z,90.00
2017-11-08T08:39:22.547Z,90.00
2017-11-08T08:40:22.591Z,90.00
2017-11-08T08:41:22.548Z,95.63
2017-11-08T08:42:22.538Z,101.25
2017-11-08T08:43:22.518Z,95.63
2017-11-08T08:44:22.533Z,101.25
2017-11-08T08:45:22.525Z,101.25
2017-11-08T08:46:22.535Z,106.88
2017-11-08T08:47:22.506Z,106.88
2017-11-08T08:48:22.531Z,112.50
2017-11-08T08:49:22.495Z,112.50
2017-11-08T08:50:22.535Z,118.13
2017-11-08T08:51:22.498Z,118.13
2017-11-08T08:52:23.204Z,123.75
2017-11-08T08:53:22.484Z,135.00
2017-11-08T08:54:22.489Z,123.75
2017-11-08T08:55:22.487Z,118.13
2017-11-08T08:56:22.501Z,106.88
2017-11-08T08:57:22.471Z,101.25
2017-11-08T08:58:22.506Z,101.25
2017-11-08T08:59:22.472Z,101.25
2017-11-08T09:00:22.464Z,101.25
2017-11-08T09:01:22.513Z,101.25
2017-11-08T09:02:22.529Z,101.25
2017-11-08T09:03:31.158Z,112.50
2017-11-08T09:05:17.085Z,129.38
2017-11-08T09:06:17.039Z,140.63
2017-11-08T09:08:10.440Z,151.88
2017-11-08T09:09:10.427Z,146.25
2017-11-08T09:11:04.874Z,157.50
2017-11-08T09:12:04.829Z,168.75
2017-11-08T09:14:09.211Z,163.13
2017-11-08T09:15:09.214Z,163.13
2017-11-08T09:17:09.664Z,180.00
2017-11-08T09:18:08.058Z,180.00
2017-11-08T09:19:10.621Z,174.38
2017-11-08T09:20:08.054Z,168.75
2017-11-08T09:21:08.062Z,168.75
2017-11-08T09:22:08.064Z,180.00
2017-11-08T09:23:08.049Z,168.75
2017-11-08T09:24:08.116Z,174.38
2017-11-08T09:25:08.050Z,180.00
2017-11-08T09:26:08.038Z,174.38
2017-11-08T09:27:08.041Z,174.38
2017-11-08T09:28:08.041Z,168.75
2017-11-08T09:29:08.033Z,180.00
2017-11-08T09:30:08.035Z,208.13
2017-11-08T09:31:08.053Z,230.63
2017-11-08T09:32:08.025Z,230.63
2017-11-08T09:33:08.020Z,225.00
2017-11-08T09:34:08.031Z,225.00
2017-11-08T09:35:08.013Z,258.75
2017-11-08T09:36:08.015Z,303.75
2017-11-08T09:37:08.015Z,320.63
2017-11-08T09:38:08.015Z,298.13
2017-11-08T09:39:08.007Z,286.88
2017-11-08T09:40:08.010Z,264.38
2017-11-08T09:41:08.010Z,241.88
2017-11-08T09:42:08.005Z,253.13
2017-11-08T09:43:08.001Z,253.13
2017-11-08T09:44:08.000Z,258.75
2017-11-08T09:45:08.001Z,281.25
2017-11-08T09:46:07.999Z,298.13
2017-11-08T09:47:16.620Z,315.00
2017-11-08T09:49:02.377Z,348.75
2017-11-08T09:51:28.161Z,388.13
2017-11-08T09:52:28.136Z,438.75
2017-11-08T09:53:28.122Z,450.00
2017-11-08T09:54:28.125Z,483.75
2017-11-08T09:55:28.120Z,568.13
2017-11-08T09:56:28.149Z,624.38
2017-11-08T09:57:28.151Z,703.13
2017-11-08T09:58:28.130Z,708.75
2017-11-08T09:59:28.113Z,708.75
2017-11-08T10:00:36.770Z,669.38
2017-11-08T10:02:21.517Z,624.38
2017-11-08T10:03:21.477Z,568.13
2017-11-08T10:04:21.478Z,540.00
2017-11-08T10:05:21.509Z,511.88
2017-11-08T10:06:21.478Z,500.63
2017-11-08T10:07:21.483Z,472.50
2017-11-08T10:08:21.497Z,466.88
2017-11-08T10:09:31.097Z,478.13
2017-11-08T10:11:14.875Z,489.38
2017-11-08T10:12:14.837Z,472.50
2017-11-08T10:14:10.122Z,427.50
2017-11-08T10:15:10.078Z,427.50
2017-11-08T10:17:03.524Z,405.00
2017-11-08T10:18:04.000Z,405.00
2017-11-08T10:19:57.852Z,421.88
2017-11-08T10:20:57.815Z,410.63
2017-11-08T10:22:52.193Z,399.38
2017-11-08T10:23:52.179Z,354.38
2017-11-08T10:25:46.764Z,360.00
2017-11-08T10:26:46.741Z,348.75
2017-11-08T10:28:40.140Z,393.75
2017-11-08T10:29:40.120Z,528.75
2017-11-08T10:31:34.531Z,585.00
2017-11-08T10:32:34.499Z,540.00
2017-11-08T10:34:27.870Z,438.75
2017-11-08T10:35:27.858Z,455.63
2017-11-08T10:37:22.249Z,444.38
2017-11-08T10:38:22.224Z,466.88
2017-11-08T10:40:15.617Z,450.00
2017-11-08T10:41:15.612Z,450.00
2017-11-08T10:43:09.159Z,438.75
2017-11-08T10:44:09.139Z,438.75
2017-11-08T10:46:04.516Z,410.63
2017-11-08T10:47:04.496Z,433.13
2017-11-08T10:48:57.893Z,562.50
2017-11-08T10:49:57.874Z,601.88
2017-11-08T10:51:52.260Z,590.63
2017-11-08T10:52:52.240Z,590.63
2017-11-08T10:53:52.247Z,601.88
2017-11-08T10:54:52.240Z,618.75
2017-11-08T10:55:52.239Z,630.00
2017-11-08T10:56:52.246Z,624.38
2017-11-08T10:57:52.237Z,618.75
2017-11-08T10:58:52.242Z,613.13
2017-11-08T10:59:52.237Z,635.63
2017-11-08T11:00:52.234Z,686.25
2017-11-08T11:01:52.237Z,731.25
2017-11-08T11:02:52.237Z,714.38
2017-11-08T11:03:52.239Z,731.25
2017-11-08T11:04:52.237Z,793.13
2017-11-08T11:05:52.238Z,776.25
2017-11-08T11:06:52.239Z,742.50
2017-11-08T11:07:52.238Z,736.88
2017-11-08T11:08:52.244Z,714.38
2017-11-08T11:09:52.242Z,714.38
2017-11-08T11:10:52.240Z,669.38
2017-11-08T11:11:52.264Z,641.25
2017-11-08T11:12:52.240Z,618.75
2017-11-08T11:13:52.246Z,596.25
2017-11-08T11:14:52.254Z,562.50
2017-11-08T11:15:52.242Z,540.00
2017-11-08T11:16:52.245Z,523.13
2017-11-08T11:17:52.253Z,489.38
2017-11-08T11:18:52.273Z,483.75
2017-11-08T11:19:52.247Z,472.50
2017-11-08T11:20:52.249Z,461.25
2017-11-08T11:21:52.251Z,455.63
2017-11-08T11:22:52.254Z,461.25
2017-11-08T11:23:52.264Z,444.38
2017-11-08T11:24:52.302Z,444.38
2017-11-08T11:25:52.260Z,438.75
2017-11-08T11:26:52.259Z,427.50
2017-11-08T11:27:52.259Z,416.25
2017-11-08T11:28:52.341Z,438.75
2017-11-08T11:29:52.259Z,455.63
2017-11-08T11:30:52.260Z,489.38
2017-11-08T11:31:52.270Z,523.13
2017-11-08T11:32:52.264Z,540.00
2017-11-08T11:33:52.275Z,556.88
2017-11-08T11:34:52.263Z,556.88
2017-11-08T11:35:52.272Z,545.63
2017-11-08T11:36:52.297Z,500.63
2017-11-08T11:37:52.285Z,461.25
2017-11-08T11:38:52.270Z,433.13
2017-11-08T11:39:52.274Z,405.00
2017-11-08T11:40:52.287Z,399.38
2017-11-08T11:41:52.272Z,410.63
2017-11-08T11:42:52.277Z,421.88
2017-11-08T11:43:52.276Z,433.13
2017-11-08T11:44:52.269Z,455.63
2017-11-08T11:45:52.276Z,461.25
2017-11-08T11:46:52.332Z,478.13
2017-11-08T11:47:52.296Z,478.13
2017-11-08T11:48:52.281Z,472.50
2017-11-08T11:49:52.280Z,472.50
2017-11-08T11:50:52.278Z,455.63
2017-11-08T11:51:52.279Z,444.38
2017-11-08T11:52:52.285Z,444.38
2017-11-08T11:53:52.283Z,461.25
2017-11-08T11:54:52.304Z,466.88
2017-11-08T11:55:52.284Z,455.63
2017-11-08T11:56:52.281Z,433.13
2017-11-08T11:57:52.305Z,399.38
2017-11-08T11:58:52.284Z,388.13
2017-11-08T11:59:52.284Z,376.88
2017-11-08T12:00:52.291Z,360.00
2017-11-08T12:01:52.287Z,348.75
2017-11-08T12:02:52.286Z,371.25
2017-11-08T12:03:52.307Z,405.00
2017-11-08T12:04:52.329Z,421.88
2017-11-08T12:05:52.287Z,421.88
2017-11-08T12:06:52.290Z,410.63
2017-11-08T12:07:52.297Z,393.75
2017-11-08T12:08:52.289Z,376.88
2017-11-08T12:09:52.292Z,365.63
2017-11-08T12:10:52.287Z,348.75
2017-11-08T12:11:52.318Z,320.63
2017-11-08T12:12:52.289Z,315.00
2017-11-08T12:13:52.292Z,309.38
2017-11-08T12:14:52.293Z,326.25
2017-11-08T12:15:52.295Z,309.38
2017-11-08T12:16:52.294Z,258.75
2017-11-08T12:17:52.318Z,247.50
2017-11-08T12:18:52.296Z,264.38
2017-11-08T12:19:52.312Z,281.25
2017-11-08T12:20:52.308Z,281.25
2017-11-08T12:21:52.309Z,264.38
2017-11-08T12:22:52.312Z,247.50
2017-11-08T12:23:52.295Z,213.75
2017-11-08T12:24:52.309Z,196.88
2017-11-08T12:25:52.303Z,196.88
2017-11-08T12:26:52.302Z,202.50
2017-11-08T12:27:52.319Z,208.13
2017-11-08T12:28:52.311Z,213.75
2017-11-08T12:29:52.301Z,253.13
2017-11-08T12:30:52.349Z,275.63
2017-11-08T12:31:52.316Z,275.63
2017-11-08T12:32:52.312Z,270.00
2017-11-08T12:33:52.337Z,270.00
2017-11-08T12:34:52.309Z,264.38
2017-11-08T12:35:52.309Z,236.25
2017-11-08T12:36:52.305Z,213.75
2017-11-08T12:37:52.302Z,196.88
2017-11-08T12:38:52.300Z,196.88
2017-11-08T12:39:52.313Z,196.88
2017-11-08T12:40:52.300Z,180.00
2017-11-08T12:41:52.306Z,180.00
2017-11-08T12:42:52.300Z,191.25
2017-11-08T12:43:52.298Z,213.75
2017-11-08T12:44:52.302Z,230.63
2017-11-08T12:45:52.311Z,236.25
2017-11-08T12:46:52.301Z,236.25
2017-11-08T12:47:52.305Z,213.75
2017-11-08T12:48:52.313Z,191.25
2017-11-08T12:49:52.300Z,168.75
2017-11-08T12:50:52.305Z,157.50
2017-11-08T12:51:52.299Z,146.25
2017-11-08T12:52:52.296Z,146.25
2017-11-08T12:53:52.301Z,151.88
2017-11-08T12:54:52.304Z,163.13
2017-11-08T12:55:52.291Z,174.38
2017-11-08T12:56:52.293Z,180.00
2017-11-08T12:57:52.289Z,180.00
2017-11-08T12:58:52.287Z,174.38
2017-11-08T12:59:52.287Z,163.13
2017-11-08T13:00:52.285Z,157.50
2017-11-08T13:01:52.289Z,151.88
2017-11-08T13:02:52.283Z,157.50
2017-11-08T13:03:52.283Z,151.88
2017-11-08T13:04:52.281Z,135.00
2017-11-08T13:05:52.283Z,112.50
2017-11-08T13:06:52.276Z,112.50
2017-11-08T13:07:52.274Z,106.88
2017-11-08T13:08:52.273Z,106.88
2017-11-08T13:09:52.279Z,118.13
2017-11-08T13:10:52.275Z,129.38
2017-11-08T13:11:52.278Z,135.00
2017-11-08T13:12:52.274Z,140.63
2017-11-08T13:14:00.895Z,135.00
2017-11-08T13:15:45.678Z,129.38
2017-11-08T13:16:45.659Z,129.38
2017-11-08T13:18:40.058Z,140.63
2017-11-08T13:19:40.066Z,146.25
2017-11-08T13:21:33.503Z,135.00
2017-11-08T13:22:33.438Z,123.75
2017-11-08T13:23:33.439Z,123.75
2017-11-08T13:24:33.444Z,123.75
2017-11-08T13:25:33.434Z,112.50
2017-11-08T13:26:33.437Z,95.63
2017-11-08T13:27:33.445Z,84.38
2017-11-08T13:28:33.423Z,84.38
2017-11-08T13:29:33.424Z,78.75
2017-11-08T13:30:33.421Z,84.38
2017-11-08T13:31:33.419Z,84.38
2017-11-08T13:32:33.415Z,78.75
2017-11-08T13:33:33.418Z,73.13
2017-11-08T13:34:33.420Z,73.13
2017-11-08T13:35:33.416Z,73.13
2017-11-08T13:36:33.409Z,78.75
2017-11-08T13:37:33.412Z,84.38
2017-11-08T13:38:33.414Z,90.00
2017-11-08T13:39:33.413Z,95.63
2017-11-08T13:40:33.417Z,106.88
2017-11-08T13:41:33.417Z,123.75
2017-11-08T13:42:33.412Z,135.00
2017-11-08T13:43:33.406Z,140.63
2017-11-08T13:44:33.401Z,140.63